sensor_id;sensor_type;location;lat;lon;timestamp;pressure;altitude;pressure_sealevel;temperature;humidity
47080;BME280;33067;49.296;14.470;2023-05-15T00:01:52;96413.00;;;12.72;52.81
47080;BME280;33067;49.296;14.470;2023-05-15T00:04:17;96412.23;;;12.97;52.38
47080;BME280;33067;49.296;14.470;2023-05-15T00:06:42;96409.38;;;13.21;52.09
47080;BME280;33067;49.296;14.470;2023-05-15T00:09:08;96406.23;;;13.39;51.66
47080;BME280;33067;49.296;14.470;2023-05-15T00:11:34;96403.02;;;13.53;51.67
47080;BME280;33067;49.296;14.470;2023-05-15T00:13:59;96402.10;;;13.60;51.66
47080;BME280;33067;49.296;14.470;2023-05-15T00:16:25;96398.51;;;13.69;51.19
47080;BME280;33067;49.296;14.470;2023-05-15T00:18:50;96399.82;;;13.47;51.07
47080;BME280;33067;49.296;14.470;2023-05-15T00:21:15;96396.82;;;13.63;51.08
47080;BME280;33067;49.296;14.470;2023-05-15T00:23:43;96393.86;;;13.65;50.95
47080;BME280;33067;49.296;14.470;2023-05-15T00:26:07;96393.85;;;13.56;50.80
47080;BME280;33067;49.296;14.470;2023-05-15T00:28:32;96392.21;;;13.85;50.88
47080;BME280;33067;49.296;14.470;2023-05-15T00:30:58;96394.53;;;13.79;50.53
47080;BME280;33067;49.296;14.470;2023-05-15T00:33:23;96391.67;;;13.45;50.51
47080;BME280;33067;49.296;14.470;2023-05-15T00:35:48;96391.62;;;13.76;50.48
47080;BME280;33067;49.296;14.470;2023-05-15T00:38:13;96390.02;;;13.76;50.54
47080;BME280;33067;49.296;14.470;2023-05-15T00:40:41;96388.27;;;13.72;50.52
47080;BME280;33067;49.296;14.470;2023-05-15T00:43:05;96383.60;;;13.51;50.37
47080;BME280;33067;49.296;14.470;2023-05-15T00:45:31;96382.28;;;13.61;50.29
47080;BME280;33067;49.296;14.470;2023-05-15T00:47:57;96379.49;;;13.72;50.40
47080;BME280;33067;49.296;14.470;2023-05-15T00:50:21;96379.22;;;13.93;50.17
47080;BME280;33067;49.296;14.470;2023-05-15T00:52:46;96374.93;;;13.40;50.52
47080;BME280;33067;49.296;14.470;2023-05-15T00:55:12;96379.61;;;13.69;50.22
47080;BME280;33067;49.296;14.470;2023-05-15T00:57:38;96377.94;;;13.70;49.88
47080;BME280;33067;49.296;14.470;2023-05-15T01:00:04;96376.40;;;13.66;50.06
47080;BME280;33067;49.296;14.470;2023-05-15T01:02:28;96377.43;;;14.16;49.87
47080;BME280;33067;49.296;14.470;2023-05-15T01:04:54;96370.90;;;13.88;50.04
47080;BME280;33067;49.296;14.470;2023-05-15T01:07:19;96368.58;;;13.43;49.86
47080;BME280;33067;49.296;14.470;2023-05-15T01:09:46;96365.50;;;13.44;50.12
47080;BME280;33067;49.296;14.470;2023-05-15T01:12:11;96364.45;;;13.16;50.27
47080;BME280;33067;49.296;14.470;2023-05-15T01:14:35;96364.60;;;13.68;50.60
47080;BME280;33067;49.296;14.470;2023-05-15T01:17:01;96366.57;;;13.34;50.73
47080;BME280;33067;49.296;14.470;2023-05-15T01:19:26;96367.95;;;13.68;50.54
47080;BME280;33067;49.296;14.470;2023-05-15T01:27:05;96360.18;;;13.42;50.59
47080;BME280;33067;49.296;14.470;2023-05-15T01:29:19;96358.57;;;12.90;51.21
47080;BME280;33067;49.296;14.470;2023-05-15T01:31:34;96356.02;;;13.11;51.42
47080;BME280;33067;49.296;14.470;2023-05-15T01:34:01;96356.35;;;12.75;51.55
47080;BME280;33067;49.296;14.470;2023-05-15T01:36:32;96356.51;;;12.96;51.68
47080;BME280;33067;49.296;14.470;2023-05-15T01:38:53;96357.65;;;12.95;51.60
47080;BME280;33067;49.296;14.470;2023-05-15T01:41:21;96358.00;;;13.13;51.49
47080;BME280;33067;49.296;14.470;2023-05-15T01:43:44;96358.38;;;12.96;51.51
47080;BME280;33067;49.296;14.470;2023-05-15T01:46:06;96357.21;;;13.11;51.67
47080;BME280;33067;49.296;14.470;2023-05-15T01:48:32;96356.07;;;13.15;51.48
47080;BME280;33067;49.296;14.470;2023-05-15T01:51:02;96357.29;;;12.98;51.55
47080;BME280;33067;49.296;14.470;2023-05-15T01:53:21;96353.82;;;13.16;51.64
47080;BME280;33067;49.296;14.470;2023-05-15T01:55:47;96352.87;;;13.16;51.56
47080;BME280;33067;49.296;14.470;2023-05-15T01:58:13;96351.33;;;13.21;51.51
47080;BME280;33067;49.296;14.470;2023-05-15T02:00:37;96352.40;;;12.87;51.40
47080;BME280;33067;49.296;14.470;2023-05-15T02:03:04;96351.67;;;12.85;51.47
47080;BME280;33067;49.296;14.470;2023-05-15T02:05:28;96348.89;;;12.90;51.60
47080;BME280;33067;49.296;14.470;2023-05-15T02:07:54;96347.57;;;12.74;51.54
47080;BME280;33067;49.296;14.470;2023-05-15T02:12:59;96344.67;;;12.78;48.97
47080;BME280;33067;49.296;14.470;2023-05-15T02:15:26;96341.83;;;13.98;48.65
47080;BME280;33067;49.296;14.470;2023-05-15T02:17:51;96339.54;;;13.69;49.17
47080;BME280;33067;49.296;14.470;2023-05-15T02:20:16;96335.23;;;13.45;49.68
47080;BME280;33067;49.296;14.470;2023-05-15T02:22:41;96332.90;;;13.51;49.95
47080;BME280;33067;49.296;14.470;2023-05-15T02:25:07;96327.46;;;13.53;50.14
47080;BME280;33067;49.296;14.470;2023-05-15T02:27:39;96328.30;;;13.37;50.18
47080;BME280;33067;49.296;14.470;2023-05-15T02:30:08;96325.96;;;13.25;50.08
47080;BME280;33067;49.296;14.470;2023-05-15T02:32:32;96324.35;;;13.33;50.15
47080;BME280;33067;49.296;14.470;2023-05-15T02:34:54;96325.11;;;13.37;50.35
47080;BME280;33067;49.296;14.470;2023-05-15T02:37:16;96323.08;;;13.45;50.29
47080;BME280;33067;49.296;14.470;2023-05-15T02:39:39;96322.21;;;13.42;50.19
47080;BME280;33067;49.296;14.470;2023-05-15T02:42:06;96319.55;;;13.12;50.43
47080;BME280;33067;49.296;14.470;2023-05-15T02:44:32;96316.19;;;13.21;50.34
47080;BME280;33067;49.296;14.470;2023-05-15T02:46:55;96311.07;;;13.23;50.19
47080;BME280;33067;49.296;14.470;2023-05-15T02:49:21;96306.07;;;13.29;50.82
47080;BME280;33067;49.296;14.470;2023-05-15T02:51:45;96304.97;;;13.17;50.76
47080;BME280;33067;49.296;14.470;2023-05-15T02:54:10;96301.11;;;13.09;50.81
47080;BME280;33067;49.296;14.470;2023-05-15T02:56:36;96298.74;;;13.17;51.03
47080;BME280;33067;49.296;14.470;2023-05-15T02:59:02;96296.29;;;12.69;50.74
47080;BME280;33067;49.296;14.470;2023-05-15T03:01:27;96297.67;;;12.81;50.87
47080;BME280;33067;49.296;14.470;2023-05-15T03:03:52;96298.01;;;12.82;51.18
47080;BME280;33067;49.296;14.470;2023-05-15T03:06:18;96296.21;;;13.50;50.69
47080;BME280;33067;49.296;14.470;2023-05-15T03:08:43;96294.09;;;13.21;50.56
47080;BME280;33067;49.296;14.470;2023-05-15T03:11:08;96295.29;;;13.03;51.11
47080;BME280;33067;49.296;14.470;2023-05-15T03:13:33;96293.99;;;13.37;50.76
47080;BME280;33067;49.296;14.470;2023-05-15T03:16:00;96293.76;;;12.67;51.34
47080;BME280;33067;49.296;14.470;2023-05-15T03:18:24;96292.93;;;12.69;51.23
47080;BME280;33067;49.296;14.470;2023-05-15T03:20:52;96291.60;;;13.06;51.16
47080;BME280;33067;49.296;14.470;2023-05-15T03:23:15;96289.93;;;13.03;51.03
47080;BME280;33067;49.296;14.470;2023-05-15T03:25:40;96288.91;;;12.95;51.20
47080;BME280;33067;49.296;14.470;2023-05-15T03:28:05;96289.07;;;12.77;51.07
47080;BME280;33067;49.296;14.470;2023-05-15T03:30:31;96292.31;;;13.33;50.79
47080;BME280;33067;49.296;14.470;2023-05-15T03:32:56;96293.62;;;13.47;50.63
47080;BME280;33067;49.296;14.470;2023-05-15T03:35:22;96292.28;;;13.48;50.53
47080;BME280;33067;49.296;14.470;2023-05-15T03:37:47;96291.97;;;13.49;50.47
47080;BME280;33067;49.296;14.470;2023-05-15T03:40:13;96291.38;;;13.59;50.52
47080;BME280;33067;49.296;14.470;2023-05-15T03:42:38;96290.38;;;13.44;50.44
47080;BME280;33067;49.296;14.470;2023-05-15T03:45:04;96286.96;;;13.42;50.41
47080;BME280;33067;49.296;14.470;2023-05-15T03:47:30;96287.07;;;13.40;50.54
47080;BME280;33067;49.296;14.470;2023-05-15T03:49:54;96286.37;;;13.49;50.54
47080;BME280;33067;49.296;14.470;2023-05-15T03:52:20;96285.24;;;13.56;50.43
47080;BME280;33067;49.296;14.470;2023-05-15T03:54:45;96286.76;;;13.31;50.36
47080;BME280;33067;49.296;14.470;2023-05-15T03:57:10;96284.50;;;13.36;50.10
47080;BME280;33067;49.296;14.470;2023-05-15T03:59:35;96282.40;;;13.26;50.42
47080;BME280;33067;49.296;14.470;2023-05-15T04:02:01;96283.18;;;13.09;50.27
47080;BME280;33067;49.296;14.470;2023-05-15T04:04:26;96281.73;;;13.29;50.28
47080;BME280;33067;49.296;14.470;2023-05-15T04:06:52;96282.92;;;13.03;49.79
47080;BME280;33067;49.296;14.470;2023-05-15T04:09:19;96284.14;;;13.28;50.33
47080;BME280;33067;49.296;14.470;2023-05-15T04:11:42;96283.95;;;13.24;50.41
47080;BME280;33067;49.296;14.470;2023-05-15T04:14:07;96282.96;;;13.50;50.17
47080;BME280;33067;49.296;14.470;2023-05-15T04:16:33;96283.60;;;13.40;49.92
47080;BME280;33067;49.296;14.470;2023-05-15T04:18:58;96281.37;;;13.10;50.80
47080;BME280;33067;49.296;14.470;2023-05-15T04:21:24;96284.44;;;13.20;50.80
47080;BME280;33067;49.296;14.470;2023-05-15T04:23:49;96285.50;;;13.28;50.80
47080;BME280;33067;49.296;14.470;2023-05-15T04:26:14;96285.45;;;13.27;50.68
47080;BME280;33067;49.296;14.470;2023-05-15T04:28:39;96286.91;;;13.06;50.79
47080;BME280;33067;49.296;14.470;2023-05-15T04:31:05;96284.03;;;13.37;50.69
47080;BME280;33067;49.296;14.470;2023-05-15T04:33:30;96283.80;;;13.22;50.76
47080;BME280;33067;49.296;14.470;2023-05-15T04:35:55;96284.88;;;12.99;51.05
47080;BME280;33067;49.296;14.470;2023-05-15T04:38:21;96286.09;;;13.29;50.86
47080;BME280;33067;49.296;14.470;2023-05-15T04:40:48;96284.77;;;13.33;50.66
47080;BME280;33067;49.296;14.470;2023-05-15T04:43:11;96286.33;;;13.39;50.86
47080;BME280;33067;49.296;14.470;2023-05-15T04:45:36;96286.41;;;13.29;50.90
47080;BME280;33067;49.296;14.470;2023-05-15T04:48:02;96286.03;;;13.38;50.79
47080;BME280;33067;49.296;14.470;2023-05-15T04:50:28;96286.76;;;13.46;50.39
47080;BME280;33067;49.296;14.470;2023-05-15T04:52:52;96287.11;;;13.23;50.74
47080;BME280;33067;49.296;14.470;2023-05-15T04:55:18;96287.45;;;13.19;50.93
47080;BME280;33067;49.296;14.470;2023-05-15T04:57:45;96285.22;;;13.12;51.25
47080;BME280;33067;49.296;14.470;2023-05-15T05:00:10;96285.97;;;13.10;51.32
47080;BME280;33067;49.296;14.470;2023-05-15T05:02:34;96286.11;;;13.20;51.23
47080;BME280;33067;49.296;14.470;2023-05-15T05:04:59;96285.04;;;13.17;51.16
47080;BME280;33067;49.296;14.470;2023-05-15T05:07:24;96284.88;;;13.29;51.21
47080;BME280;33067;49.296;14.470;2023-05-15T05:09:51;96280.71;;;13.24;50.81
47080;BME280;33067;49.296;14.470;2023-05-15T05:12:15;96281.50;;;12.95;51.25
47080;BME280;33067;49.296;14.470;2023-05-15T05:14:41;96280.52;;;13.28;51.06
47080;BME280;33067;49.296;14.470;2023-05-15T05:17:06;96281.21;;;13.29;51.10
47080;BME280;33067;49.296;14.470;2023-05-15T05:19:32;96280.36;;;13.30;50.96
47080;BME280;33067;49.296;14.470;2023-05-15T05:21:57;96280.68;;;13.39;50.90
47080;BME280;33067;49.296;14.470;2023-05-15T05:24:23;96281.94;;;13.27;50.69
47080;BME280;33067;49.296;14.470;2023-05-15T05:26:48;96281.44;;;13.48;50.72
47080;BME280;33067;49.296;14.470;2023-05-15T05:29:13;96282.25;;;13.50;50.58
47080;BME280;33067;49.296;14.470;2023-05-15T05:31:38;96284.20;;;13.43;50.73
47080;BME280;33067;49.296;14.470;2023-05-15T05:34:04;96285.25;;;12.99;51.08
47080;BME280;33067;49.296;14.470;2023-05-15T05:36:29;96284.34;;;13.36;51.05
47080;BME280;33067;49.296;14.470;2023-05-15T05:38:55;96284.77;;;13.16;50.97
47080;BME280;33067;49.296;14.470;2023-05-15T05:41:20;96285.63;;;13.13;50.74
47080;BME280;33067;49.296;14.470;2023-05-15T05:43:45;96283.57;;;13.18;50.55
47080;BME280;33067;49.296;14.470;2023-05-15T05:46:10;96286.20;;;13.37;50.83
47080;BME280;33067;49.296;14.470;2023-05-15T05:48:36;96286.40;;;13.27;50.97
47080;BME280;33067;49.296;14.470;2023-05-15T05:51:01;96284.83;;;13.15;50.49
47080;BME280;33067;49.296;14.470;2023-05-15T05:53:26;96283.47;;;13.18;50.95
47080;BME280;33067;49.296;14.470;2023-05-15T05:55:51;96283.85;;;12.70;50.50
47080;BME280;33067;49.296;14.470;2023-05-15T05:58:17;96279.90;;;12.96;50.75
47080;BME280;33067;49.296;14.470;2023-05-15T06:00:42;96280.00;;;13.35;50.70
47080;BME280;33067;49.296;14.470;2023-05-15T06:03:09;96278.39;;;13.22;51.48
47080;BME280;33067;49.296;14.470;2023-05-15T06:05:32;96278.08;;;13.53;50.84
47080;BME280;33067;49.296;14.470;2023-05-15T06:07:58;96278.08;;;13.27;51.06
47080;BME280;33067;49.296;14.470;2023-05-15T06:10:24;96277.92;;;13.29;51.40
47080;BME280;33067;49.296;14.470;2023-05-15T06:12:48;96273.90;;;12.98;51.41
47080;BME280;33067;49.296;14.470;2023-05-15T06:15:15;96276.02;;;13.42;50.99
47080;BME280;33067;49.296;14.470;2023-05-15T06:17:40;96275.12;;;13.45;50.19
47080;BME280;33067;49.296;14.470;2023-05-15T06:20:06;96274.71;;;13.37;50.94
47080;BME280;33067;49.296;14.470;2023-05-15T06:22:31;96275.29;;;13.13;51.27
47080;BME280;33067;49.296;14.470;2023-05-15T06:24:58;96275.21;;;13.01;51.12
47080;BME280;33067;49.296;14.470;2023-05-15T06:27:24;96275.57;;;13.69;51.09
47080;BME280;33067;49.296;14.470;2023-05-15T06:29:47;96271.53;;;13.81;50.64
47080;BME280;33067;49.296;14.470;2023-05-15T06:32:14;96271.60;;;13.60;50.79
47080;BME280;33067;49.296;14.470;2023-05-15T06:34:40;96272.18;;;13.34;51.11
47080;BME280;33067;49.296;14.470;2023-05-15T06:37:03;96269.82;;;13.23;51.29
47080;BME280;33067;49.296;14.470;2023-05-15T06:39:28;96270.68;;;13.51;51.33
47080;BME280;33067;49.296;14.470;2023-05-15T06:41:54;96267.46;;;13.50;50.97
47080;BME280;33067;49.296;14.470;2023-05-15T06:44:19;96267.75;;;13.27;50.78
47080;BME280;33067;49.296;14.470;2023-05-15T06:46:44;96266.03;;;13.27;51.50
47080;BME280;33067;49.296;14.470;2023-05-15T06:49:09;96266.70;;;12.82;51.20
47080;BME280;33067;49.296;14.470;2023-05-15T06:51:35;96267.29;;;13.01;51.91
47080;BME280;33067;49.296;14.470;2023-05-15T06:54:00;96266.81;;;13.03;51.66
47080;BME280;33067;49.296;14.470;2023-05-15T06:56:25;96267.45;;;13.20;51.33
47080;BME280;33067;49.296;14.470;2023-05-15T06:58:50;96268.36;;;13.38;50.62
47080;BME280;33067;49.296;14.470;2023-05-15T07:01:15;96268.10;;;13.55;50.90
47080;BME280;33067;49.296;14.470;2023-05-15T07:03:41;96267.24;;;12.98;51.57
47080;BME280;33067;49.296;14.470;2023-05-15T07:06:06;96262.85;;;12.94;52.22
47080;BME280;33067;49.296;14.470;2023-05-15T07:08:31;96263.49;;;12.93;51.91
47080;BME280;33067;49.296;14.470;2023-05-15T07:10:56;96265.27;;;12.89;51.81
47080;BME280;33067;49.296;14.470;2023-05-15T07:13:22;96263.27;;;13.10;51.58
47080;BME280;33067;49.296;14.470;2023-05-15T07:15:47;96263.36;;;13.02;51.56
47080;BME280;33067;49.296;14.470;2023-05-15T07:18:12;96263.03;;;13.41;51.39
47080;BME280;33067;49.296;14.470;2023-05-15T07:20:39;96265.50;;;13.55;51.52
47080;BME280;33067;49.296;14.470;2023-05-15T07:23:03;96264.34;;;13.39;51.56
47080;BME280;33067;49.296;14.470;2023-05-15T07:25:28;96265.97;;;13.23;52.36
47080;BME280;33067;49.296;14.470;2023-05-15T07:27:53;96271.16;;;13.19;52.47
47080;BME280;33067;49.296;14.470;2023-05-15T07:30:18;96267.63;;;12.97;52.40
47080;BME280;33067;49.296;14.470;2023-05-15T07:32:44;96266.16;;;13.06;52.32
47080;BME280;33067;49.296;14.470;2023-05-15T07:35:09;96267.54;;;12.99;52.75
47080;BME280;33067;49.296;14.470;2023-05-15T07:37:34;96266.65;;;13.17;52.57
47080;BME280;33067;49.296;14.470;2023-05-15T07:39:59;96263.19;;;13.19;52.62
47080;BME280;33067;49.296;14.470;2023-05-15T07:42:25;96262.03;;;13.72;52.25
47080;BME280;33067;49.296;14.470;2023-05-15T07:44:50;96262.48;;;13.66;52.58
47080;BME280;33067;49.296;14.470;2023-05-15T07:47:17;96260.60;;;13.43;52.53
47080;BME280;33067;49.296;14.470;2023-05-15T07:49:40;96260.62;;;13.49;51.95
47080;BME280;33067;49.296;14.470;2023-05-15T07:52:06;96257.01;;;13.61;52.35
47080;BME280;33067;49.296;14.470;2023-05-15T07:54:31;96259.63;;;13.26;52.12
47080;BME280;33067;49.296;14.470;2023-05-15T07:56:56;96255.42;;;13.41;52.07
47080;BME280;33067;49.296;14.470;2023-05-15T07:59:21;96257.80;;;13.34;52.10
47080;BME280;33067;49.296;14.470;2023-05-15T08:01:46;96255.82;;;13.57;52.03
47080;BME280;33067;49.296;14.470;2023-05-15T08:04:12;96255.86;;;14.02;50.71
47080;BME280;33067;49.296;14.470;2023-05-15T08:06:37;96261.20;;;14.15;51.45
47080;BME280;33067;49.296;14.470;2023-05-15T08:09:02;96256.37;;;13.85;51.50
47080;BME280;33067;49.296;14.470;2023-05-15T08:11:27;96257.83;;;13.46;51.54
47080;BME280;33067;49.296;14.470;2023-05-15T08:13:54;96255.91;;;13.91;51.09
47080;BME280;33067;49.296;14.470;2023-05-15T08:16:18;96257.34;;;13.66;51.35
47080;BME280;33067;49.296;14.470;2023-05-15T08:18:43;96259.34;;;13.53;51.64
47080;BME280;33067;49.296;14.470;2023-05-15T08:21:08;96254.14;;;13.57;51.95
47080;BME280;33067;49.296;14.470;2023-05-15T08:23:33;96259.18;;;13.35;52.31
47080;BME280;33067;49.296;14.470;2023-05-15T08:26:00;96256.43;;;13.76;52.63
47080;BME280;33067;49.296;14.470;2023-05-15T08:28:24;96257.22;;;13.20;52.71
47080;BME280;33067;49.296;14.470;2023-05-15T08:30:51;96257.45;;;13.96;52.63
47080;BME280;33067;49.296;14.470;2023-05-15T08:33:14;96265.43;;;13.28;53.42
47080;BME280;33067;49.296;14.470;2023-05-15T08:35:40;96265.64;;;13.37;53.60
47080;BME280;33067;49.296;14.470;2023-05-15T08:38:07;96265.38;;;13.90;52.54
47080;BME280;33067;49.296;14.470;2023-05-15T08:40:30;96264.32;;;13.86;52.95
47080;BME280;33067;49.296;14.470;2023-05-15T08:43:00;96267.58;;;13.94;52.25
47080;BME280;33067;49.296;14.470;2023-05-15T08:45:21;96265.07;;;13.93;52.68
47080;BME280;33067;49.296;14.470;2023-05-15T08:47:46;96268.89;;;14.28;51.32
47080;BME280;33067;49.296;14.470;2023-05-15T08:50:14;96268.20;;;14.03;51.39
47080;BME280;33067;49.296;14.470;2023-05-15T08:52:36;96269.74;;;14.24;50.89
47080;BME280;33067;49.296;14.470;2023-05-15T08:55:02;96267.94;;;13.97;52.25
47080;BME280;33067;49.296;14.470;2023-05-15T08:57:27;96268.11;;;14.23;51.73
47080;BME280;33067;49.296;14.470;2023-05-15T08:59:51;96271.14;;;14.36;51.73
47080;BME280;33067;49.296;14.470;2023-05-15T09:02:17;96271.12;;;14.15;50.96
47080;BME280;33067;49.296;14.470;2023-05-15T09:04:42;96270.70;;;14.50;50.96
47080;BME280;33067;49.296;14.470;2023-05-15T09:07:08;96271.61;;;14.34;51.70
47080;BME280;33067;49.296;14.470;2023-05-15T09:09:32;96275.72;;;14.40;51.36
47080;BME280;33067;49.296;14.470;2023-05-15T09:11:58;96274.93;;;14.43;51.34
47080;BME280;33067;49.296;14.470;2023-05-15T09:14:23;96274.77;;;14.24;51.80
47080;BME280;33067;49.296;14.470;2023-05-15T09:16:48;96270.86;;;14.07;52.02
47080;BME280;33067;49.296;14.470;2023-05-15T09:19:15;96271.12;;;13.97;52.49
47080;BME280;33067;49.296;14.470;2023-05-15T09:21:38;96273.20;;;14.24;52.07
47080;BME280;33067;49.296;14.470;2023-05-15T09:24:15;96276.83;;;14.35;51.78
47080;BME280;33067;49.296;14.470;2023-05-15T09:26:29;96281.60;;;14.34;51.13
47080;BME280;33067;49.296;14.470;2023-05-15T09:29:01;96278.51;;;14.51;50.79
47080;BME280;33067;49.296;14.470;2023-05-15T09:31:19;96280.12;;;14.63;50.43
47080;BME280;33067;49.296;14.470;2023-05-15T09:33:44;96280.52;;;14.38;50.42
47080;BME280;33067;49.296;14.470;2023-05-15T09:36:10;96280.76;;;14.41;50.67
47080;BME280;33067;49.296;14.470;2023-05-15T09:38:41;96290.73;;;14.59;51.02
47080;BME280;33067;49.296;14.470;2023-05-15T09:41:03;96286.99;;;14.79;50.79
47080;BME280;33067;49.296;14.470;2023-05-15T09:43:27;96289.21;;;15.06;50.79
47080;BME280;33067;49.296;14.470;2023-05-15T09:45:51;96288.22;;;14.55;50.42
47080;BME280;33067;49.296;14.470;2023-05-15T09:48:17;96295.35;;;14.74;50.56
47080;BME280;33067;49.296;14.470;2023-05-15T09:50:42;96299.39;;;14.31;51.26
47080;BME280;33067;49.296;14.470;2023-05-15T09:53:11;96301.24;;;14.20;51.82
47080;BME280;33067;49.296;14.470;2023-05-15T09:55:33;96299.54;;;14.26;51.96
47080;BME280;33067;49.296;14.470;2023-05-15T09:58:05;96303.36;;;14.36;52.24
47080;BME280;33067;49.296;14.470;2023-05-15T10:00:23;96304.86;;;14.43;52.76
47080;BME280;33067;49.296;14.470;2023-05-15T10:02:48;96301.84;;;14.94;52.14
47080;BME280;33067;49.296;14.470;2023-05-15T10:05:14;96303.31;;;15.29;52.71
47080;BME280;33067;49.296;14.470;2023-05-15T10:07:38;96298.44;;;14.92;52.15
47080;BME280;33067;49.296;14.470;2023-05-15T10:10:05;96299.61;;;15.01;51.86
47080;BME280;33067;49.296;14.470;2023-05-15T10:12:30;96302.16;;;14.95;51.83
47080;BME280;33067;49.296;14.470;2023-05-15T10:14:55;96301.06;;;14.83;52.10
47080;BME280;33067;49.296;14.470;2023-05-15T10:17:19;96300.86;;;14.81;51.19
47080;BME280;33067;49.296;14.470;2023-05-15T10:19:45;96302.50;;;15.27;50.58
47080;BME280;33067;49.296;14.470;2023-05-15T10:22:10;96302.74;;;15.19;50.72
47080;BME280;33067;49.296;14.470;2023-05-15T10:24:35;96295.61;;;15.11;50.82
47080;BME280;33067;49.296;14.470;2023-05-15T10:27:01;96294.29;;;14.94;50.94
47080;BME280;33067;49.296;14.470;2023-05-15T10:29:25;96289.57;;;15.30;51.61
47080;BME280;33067;49.296;14.470;2023-05-15T10:31:51;96291.82;;;15.45;50.91
47080;BME280;33067;49.296;14.470;2023-05-15T10:34:17;96293.24;;;15.35;49.79
47080;BME280;33067;49.296;14.470;2023-05-15T10:36:41;96292.34;;;15.51;50.97
47080;BME280;33067;49.296;14.470;2023-05-15T10:39:07;96297.38;;;15.84;50.56
47080;BME280;33067;49.296;14.470;2023-05-15T10:41:35;96296.04;;;15.75;49.06
47080;BME280;33067;49.296;14.470;2023-05-15T10:43:58;96300.09;;;15.74;48.85
47080;BME280;33067;49.296;14.470;2023-05-15T10:46:22;96299.74;;;16.28;48.33
47080;BME280;33067;49.296;14.470;2023-05-15T10:48:47;96295.30;;;15.60;47.89
47080;BME280;33067;49.296;14.470;2023-05-15T10:51:14;96293.34;;;16.33;45.95
47080;BME280;33067;49.296;14.470;2023-05-15T10:53:39;96287.32;;;16.50;46.80
47080;BME280;33067;49.296;14.470;2023-05-15T10:56:04;96290.86;;;17.04;46.06
47080;BME280;33067;49.296;14.470;2023-05-15T10:58:29;96292.98;;;16.04;47.02
47080;BME280;33067;49.296;14.470;2023-05-15T11:00:54;96290.41;;;16.27;47.01
47080;BME280;33067;49.296;14.470;2023-05-15T11:08:24;96286.30;;;16.49;46.13
47080;BME280;33067;49.296;14.470;2023-05-15T11:10:35;96286.92;;;16.05;47.44
47080;BME280;33067;49.296;14.470;2023-05-15T11:13:01;96286.86;;;16.42;46.58
47080;BME280;33067;49.296;14.470;2023-05-15T11:15:25;96288.79;;;16.32;46.85
47080;BME280;33067;49.296;14.470;2023-05-15T11:18:01;96290.25;;;15.23;48.14
47080;BME280;33067;49.296;14.470;2023-05-15T11:20:15;96287.17;;;15.56;48.16
47080;BME280;33067;49.296;14.470;2023-05-15T11:22:41;96287.28;;;15.31;47.33
47080;BME280;33067;49.296;14.470;2023-05-15T11:25:08;96281.66;;;14.47;48.32
47080;BME280;33067;49.296;14.470;2023-05-15T11:27:37;96281.71;;;14.13;49.37
47080;BME280;33067;49.296;14.470;2023-05-15T11:30:04;96273.72;;;14.83;48.59
47080;BME280;33067;49.296;14.470;2023-05-15T11:32:31;96265.09;;;15.35;48.72
47080;BME280;33067;49.296;14.470;2023-05-15T11:34:49;96263.54;;;15.06;48.17
47080;BME280;33067;49.296;14.470;2023-05-15T11:37:17;96264.42;;;15.56;48.36
47080;BME280;33067;49.296;14.470;2023-05-15T11:39:38;96260.74;;;15.91;48.30
47080;BME280;33067;49.296;14.470;2023-05-15T11:42:11;96254.47;;;16.53;46.78
47080;BME280;33067;49.296;14.470;2023-05-15T11:44:28;96249.04;;;16.87;46.58
47080;BME280;33067;49.296;14.470;2023-05-15T11:46:55;96249.46;;;16.33;45.79
47080;BME280;33067;49.296;14.470;2023-05-15T11:49:19;96249.39;;;15.86;47.36
47080;BME280;33067;49.296;14.470;2023-05-15T11:51:44;96244.04;;;16.46;45.66
47080;BME280;33067;49.296;14.470;2023-05-15T11:54:09;96243.73;;;16.63;43.92
47080;BME280;33067;49.296;14.470;2023-05-15T11:56:33;96245.96;;;15.81;44.49
47080;BME280;33067;49.296;14.470;2023-05-15T11:59:00;96245.68;;;16.20;44.71
47080;BME280;33067;49.296;14.470;2023-05-15T12:01:24;96239.57;;;15.96;44.71
47080;BME280;33067;49.296;14.470;2023-05-15T12:03:50;96239.38;;;16.15;44.34
47080;BME280;33067;49.296;14.470;2023-05-15T12:06:14;96237.38;;;15.62;45.65
47080;BME280;33067;49.296;14.470;2023-05-15T12:08:39;96230.98;;;15.93;45.02
47080;BME280;33067;49.296;14.470;2023-05-15T12:11:05;96224.03;;;16.15;44.61
47080;BME280;33067;49.296;14.470;2023-05-15T12:13:30;96220.12;;;16.69;44.91
47080;BME280;33067;49.296;14.470;2023-05-15T12:15:56;96222.25;;;17.06;43.10
47080;BME280;33067;49.296;14.470;2023-05-15T12:18:21;96229.33;;;17.13;42.24
47080;BME280;33067;49.296;14.470;2023-05-15T12:20:47;96232.94;;;16.90;41.95
47080;BME280;33067;49.296;14.470;2023-05-15T12:23:16;96231.75;;;16.66;41.92
47080;BME280;33067;49.296;14.470;2023-05-15T12:25:37;96237.12;;;17.06;42.25
47080;BME280;33067;49.296;14.470;2023-05-15T12:28:03;96245.16;;;17.44;40.60
47080;BME280;33067;49.296;14.470;2023-05-15T12:30:29;96242.81;;;17.02;40.29
47080;BME280;33067;49.296;14.470;2023-05-15T12:32:52;96245.11;;;16.75;40.76
47080;BME280;33067;49.296;14.470;2023-05-15T12:35:17;96238.71;;;16.47;39.96
47080;BME280;33067;49.296;14.470;2023-05-15T12:37:42;96234.56;;;16.50;38.95
47080;BME280;33067;49.296;14.470;2023-05-15T12:40:09;96239.63;;;17.19;38.87
47080;BME280;33067;49.296;14.470;2023-05-15T12:42:39;96240.16;;;16.78;38.68
47080;BME280;33067;49.296;14.470;2023-05-15T12:44:57;96237.01;;;16.63;38.38
47080;BME280;33067;49.296;14.470;2023-05-15T12:47:24;96234.13;;;16.80;38.83
47080;BME280;33067;49.296;14.470;2023-05-15T12:49:48;96239.45;;;17.05;38.87
47080;BME280;33067;49.296;14.470;2023-05-15T12:52:15;96243.68;;;17.22;38.40